Date,TemperatureHighF,TemperatureAvgF,TemperatureLowF,DewpointHighF,DewpointAvgF,DewpointLowF,HumidityHigh,HumidityAvg,HumidityLow,PressureMaxIn,PressureMinIn,WindSpeedMaxMPH,WindSpeedAvgMPH,GustSpeedMaxMPH,PrecipitationSumIn
2013-2-1,86,80,76,75,73,70,89,80,63,29.81,29.71,21,6,21,0.00
2013-2-2,84,80,78,76,73,71,88,80,70,29.83,29.73,19,6,19,0.01
2013-2-3,86,78,73,74,72,67,98,82,56,29.80,29.69,27,9,27,0.04
2013-2-4,85,83,81,73,73,72,76,71,67,29.76,29.67,25,10,27,0.06
2013-2-5,85,81,77,74,73,71,83,77,70,29.77,29.66,21,6,23,0.00
2013-2-6,86,80,75,77,74,71,93,81,69,29.75,29.61,21,3,21,0.02
2013-2-7,85,80,76,76,74,72,90,82,69,29.70,29.58,20,5,20,0.00
2013-2-8,88,81,76,74,73,72,91,78,62,29.73,29.61,19,5,19,0.00
2013-2-9,86,80,77,75,73,70,88,79,62,29.73,29.63,21,7,21,0.00
2013-2-10,84,79,76,73,70,65,84,73,54,29.76,29.67,28,9,28,0.00
2013-2-11,85,78,75,78,74,72,98,89,77,29.72,29.61,23,3,23,0.18
2013-2-12,84,79,74,74,73,71,95,82,67,29.72,29.63,26,7,26,0.01
2013-2-13,87,81,77,75,73,70,85,75,60,29.71,29.60,28,8,28,0.00
2013-2-14,86,81,73,75,73,70,94,77,63,29.69,29.59,29,10,29,0.05
2013-2-15,79,78,76,74,72,70,89,83,78,29.67,29.57,15,5,15,0.10
2013-2-16,87,84,77,72,70,68,77,64,57,29.67,29.57,30,11,30,0.00
2013-2-17,84,79,77,72,70,68,76,73,61,29.66,29.58,28,12,28,0.00
2013-2-19,79,75,73,74,73,72,97,95,82,29.58,29.49,32,11,32,0.98
2013-2-20,82,76,0,77,74,0,99,92,77,29.61,29.50,34,10,34,0.01
2013-2-21,79,76,75,75,74,74,98,96,87,29.66,29.63,9,3,12,1.24
2013-2-22,84,77,75,76,75,74,99,92,75,29.68,29.59,19,5,26,0.26
2013-2-23,88,84,81,76,75,73,83,73,65,29.70,29.61,28,13,29,0.00
2013-2-24,85,83,80,74,72,71,81,70,62,29.70,29.62,23,11,25,0.00
2013-2-26,79,78,76,74,74,73,93,86,82,29.75,29.70,17,4,17,0.13
2013-2-27,86,80,75,75,74,72,96,81,63,29.76,29.61,21,7,21,0.02
2013-2-28,82,79,78,75,74,71,89,84,72,29.69,29.64,12,4,13,0.00